sensor_id;sensor_type;location;lat;lon;timestamp;temperature;humidity
8633;DHT22;4354;49.832;10.746;2022-09-21T00:01:27;4.70;99.90
8633;DHT22;4354;49.832;10.746;2022-09-21T00:03:57;4.80;99.90
8633;DHT22;4354;49.832;10.746;2022-09-21T00:06:25;4.70;99.90
8633;DHT22;4354;49.832;10.746;2022-09-21T00:08:54;4.80;99.90
8633;DHT22;4354;49.832;10.746;2022-09-21T00:11:26;4.80;99.90
8633;DHT22;4354;49.832;10.746;2022-09-21T00:13:58;4.80;99.90
8633;DHT22;4354;49.832;10.746;2022-09-21T00:16:27;4.70;99.90
8633;DHT22;4354;49.832;10.746;2022-09-21T00:18:54;4.60;99.90
8633;DHT22;4354;49.832;10.746;2022-09-21T00:21:21;4.60;99.90
8633;DHT22;4354;49.832;10.746;2022-09-21T00:23:48;4.60;99.90
8633;DHT22;4354;49.832;10.746;2022-09-21T00:26:18;4.60;99.90
8633;DHT22;4354;49.832;10.746;2022-09-21T00:28:45;4.50;99.90
8633;DHT22;4354;49.832;10.746;2022-09-21T00:31:15;4.50;99.90
8633;DHT22;4354;49.832;10.746;2022-09-21T00:33:43;4.50;99.90
8633;DHT22;4354;49.832;10.746;2022-09-21T00:36:13;4.40;99.90
8633;DHT22;4354;49.832;10.746;2022-09-21T00:38:40;4.30;99.90
8633;DHT22;4354;49.832;10.746;2022-09-21T00:41:12;4.20;99.90
8633;DHT22;4354;49.832;10.746;2022-09-21T00:43:44;4.20;99.90
8633;DHT22;4354;49.832;10.746;2022-09-21T00:46:23;4.10;99.90
8633;DHT22;4354;49.832;10.746;2022-09-21T00:48:53;4.10;99.90
8633;DHT22;4354;49.832;10.746;2022-09-21T00:51:20;4.00;99.90
8633;DHT22;4354;49.832;10.746;2022-09-21T00:53:52;4.00;99.90
8633;DHT22;4354;49.832;10.746;2022-09-21T00:56:21;4.00;99.90
8633;DHT22;4354;49.832;10.746;2022-09-21T00:58:50;4.00;99.90
8633;DHT22;4354;49.832;10.746;2022-09-21T01:01:18;4.10;99.90
8633;DHT22;4354;49.832;10.746;2022-09-21T01:03:46;4.10;99.90
8633;DHT22;4354;49.832;10.746;2022-09-21T01:06:15;4.10;99.90
8633;DHT22;4354;49.832;10.746;2022-09-21T01:08:44;4.20;99.90
8633;DHT22;4354;49.832;10.746;2022-09-21T01:11:22;4.30;99.90
8633;DHT22;4354;49.832;10.746;2022-09-21T01:16:54;4.50;99.90
8633;DHT22;4354;49.832;10.746;2022-09-21T01:30:08;4.70;99.90
8633;DHT22;4354;49.832;10.746;2022-09-21T01:32:58;4.80;99.90
8633;DHT22;4354;49.832;10.746;2022-09-21T01:35:36;4.90;99.90
8633;DHT22;4354;49.832;10.746;2022-09-21T01:38:08;4.90;99.90
8633;DHT22;4354;49.832;10.746;2022-09-21T01:40:42;5.00;99.90
8633;DHT22;4354;49.832;10.746;2022-09-21T01:43:14;5.00;99.90
8633;DHT22;4354;49.832;10.746;2022-09-21T01:45:48;5.00;99.90
8633;DHT22;4354;49.832;10.746;2022-09-21T01:48:16;5.00;99.90
8633;DHT22;4354;49.832;10.746;2022-09-21T01:50:47;5.00;99.90
8633;DHT22;4354;49.832;10.746;2022-09-21T01:53:40;5.10;99.90
8633;DHT22;4354;49.832;10.746;2022-09-21T01:56:24;5.10;99.90
8633;DHT22;4354;49.832;10.746;2022-09-21T01:59:25;5.10;99.90
8633;DHT22;4354;49.832;10.746;2022-09-21T02:02:00;5.10;99.90
8633;DHT22;4354;49.832;10.746;2022-09-21T02:04:29;5.10;99.90
8633;DHT22;4354;49.832;10.746;2022-09-21T02:06:56;5.00;99.90
8633;DHT22;4354;49.832;10.746;2022-09-21T02:09:24;5.10;99.90
8633;DHT22;4354;49.832;10.746;2022-09-21T02:11:51;5.10;99.90
8633;DHT22;4354;49.832;10.746;2022-09-21T02:14:20;5.00;99.90
8633;DHT22;4354;49.832;10.746;2022-09-21T02:25:34;5.20;99.90
8633;DHT22;4354;49.832;10.746;2022-09-21T02:28:09;5.20;99.90
8633;DHT22;4354;49.832;10.746;2022-09-21T02:30:40;5.30;99.90
8633;DHT22;4354;49.832;10.746;2022-09-21T02:33:54;5.30;99.90
8633;DHT22;4354;49.832;10.746;2022-09-21T02:39:05;5.40;99.90
8633;DHT22;4354;49.832;10.746;2022-09-21T02:41:39;5.40;99.90
8633;DHT22;4354;49.832;10.746;2022-09-21T02:44:18;5.40;99.90
8633;DHT22;4354;49.832;10.746;2022-09-21T02:46:52;5.40;99.90
8633;DHT22;4354;49.832;10.746;2022-09-21T02:49:27;5.40;99.90
8633;DHT22;4354;49.832;10.746;2022-09-21T02:52:00;5.40;99.90
8633;DHT22;4354;49.832;10.746;2022-09-21T02:54:30;5.40;99.90
8633;DHT22;4354;49.832;10.746;2022-09-21T02:56:59;5.40;99.90
8633;DHT22;4354;49.832;10.746;2022-09-21T02:59:26;5.40;99.90
8633;DHT22;4354;49.832;10.746;2022-09-21T03:01:54;5.40;99.90
8633;DHT22;4354;49.832;10.746;2022-09-21T03:04:24;5.40;99.90
8633;DHT22;4354;49.832;10.746;2022-09-21T03:06:53;5.40;99.90
8633;DHT22;4354;49.832;10.746;2022-09-21T03:09:20;5.40;99.90
8633;DHT22;4354;49.832;10.746;2022-09-21T03:11:53;5.30;99.90
8633;DHT22;4354;49.832;10.746;2022-09-21T03:14:20;5.30;99.90
8633;DHT22;4354;49.832;10.746;2022-09-21T03:16:48;5.30;99.90
8633;DHT22;4354;49.832;10.746;2022-09-21T03:19:15;5.30;99.90
8633;DHT22;4354;49.832;10.746;2022-09-21T03:21:42;5.30;99.90
8633;DHT22;4354;49.832;10.746;2022-09-21T03:24:11;5.40;99.90
8633;DHT22;4354;49.832;10.746;2022-09-21T03:26:37;5.40;99.90
8633;DHT22;4354;49.832;10.746;2022-09-21T03:29:04;5.40;99.90
8633;DHT22;4354;49.832;10.746;2022-09-21T03:31:31;5.40;99.90
8633;DHT22;4354;49.832;10.746;2022-09-21T03:33:58;5.40;99.90
8633;DHT22;4354;49.832;10.746;2022-09-21T03:36:25;5.40;99.90
8633;DHT22;4354;49.832;10.746;2022-09-21T03:38:52;5.50;99.90
8633;DHT22;4354;49.832;10.746;2022-09-21T03:41:19;5.40;99.90
8633;DHT22;4354;49.832;10.746;2022-09-21T03:43:46;5.40;99.90
8633;DHT22;4354;49.832;10.746;2022-09-21T03:46:13;5.50;99.90
8633;DHT22;4354;49.832;10.746;2022-09-21T03:48:39;5.40;99.90
8633;DHT22;4354;49.832;10.746;2022-09-21T03:51:08;5.40;99.90
8633;DHT22;4354;49.832;10.746;2022-09-21T03:53:35;5.40;99.90
8633;DHT22;4354;49.832;10.746;2022-09-21T03:56:01;5.40;99.90
8633;DHT22;4354;49.832;10.746;2022-09-21T03:58:28;5.40;99.90
8633;DHT22;4354;49.832;10.746;2022-09-21T04:01:00;5.40;99.90
8633;DHT22;4354;49.832;10.746;2022-09-21T04:03:28;5.40;99.90
8633;DHT22;4354;49.832;10.746;2022-09-21T04:05:55;5.50;99.90
8633;DHT22;4354;49.832;10.746;2022-09-21T04:08:25;5.50;99.90
8633;DHT22;4354;49.832;10.746;2022-09-21T04:10:52;5.50;99.90
8633;DHT22;4354;49.832;10.746;2022-09-21T04:13:19;5.50;99.90
8633;DHT22;4354;49.832;10.746;2022-09-21T04:15:46;5.50;99.90
8633;DHT22;4354;49.832;10.746;2022-09-21T04:18:13;5.60;99.90
8633;DHT22;4354;49.832;10.746;2022-09-21T04:20:39;5.50;99.90
8633;DHT22;4354;49.832;10.746;2022-09-21T04:23:07;5.40;99.90
8633;DHT22;4354;49.832;10.746;2022-09-21T04:25:34;5.40;99.90
8633;DHT22;4354;49.832;10.746;2022-09-21T04:28:01;5.30;99.90
8633;DHT22;4354;49.832;10.746;2022-09-21T04:30:28;5.30;99.90
8633;DHT22;4354;49.832;10.746;2022-09-21T04:33:01;5.20;99.90
8633;DHT22;4354;49.832;10.746;2022-09-21T04:35:27;5.20;99.90
8633;DHT22;4354;49.832;10.746;2022-09-21T04:37:54;5.20;99.90
8633;DHT22;4354;49.832;10.746;2022-09-21T04:40:23;5.30;99.90
8633;DHT22;4354;49.832;10.746;2022-09-21T04:42:51;5.30;99.90
8633;DHT22;4354;49.832;10.746;2022-09-21T04:45:20;5.30;99.90
8633;DHT22;4354;49.832;10.746;2022-09-21T04:47:47;5.40;99.90
8633;DHT22;4354;49.832;10.746;2022-09-21T04:50:14;5.40;99.90
8633;DHT22;4354;49.832;10.746;2022-09-21T04:52:41;5.40;99.90
8633;DHT22;4354;49.832;10.746;2022-09-21T04:55:08;5.40;99.90
8633;DHT22;4354;49.832;10.746;2022-09-21T04:57:35;5.50;99.90
8633;DHT22;4354;49.832;10.746;2022-09-21T05:00:04;5.50;99.90
8633;DHT22;4354;49.832;10.746;2022-09-21T05:02:31;5.60;99.90
8633;DHT22;4354;49.832;10.746;2022-09-21T05:04:58;5.60;99.90
8633;DHT22;4354;49.832;10.746;2022-09-21T05:07:24;5.60;99.90
8633;DHT22;4354;49.832;10.746;2022-09-21T05:09:51;5.60;99.90
8633;DHT22;4354;49.832;10.746;2022-09-21T05:12:31;5.60;99.90
8633;DHT22;4354;49.832;10.746;2022-09-21T05:14:58;5.60;99.90
8633;DHT22;4354;49.832;10.746;2022-09-21T05:17:25;5.70;99.90
8633;DHT22;4354;49.832;10.746;2022-09-21T05:19:52;5.60;99.90
8633;DHT22;4354;49.832;10.746;2022-09-21T05:22:19;5.70;99.90
8633;DHT22;4354;49.832;10.746;2022-09-21T05:24:46;5.70;99.90
8633;DHT22;4354;49.832;10.746;2022-09-21T05:27:13;5.70;99.90
8633;DHT22;4354;49.832;10.746;2022-09-21T05:29:41;5.70;99.90
8633;DHT22;4354;49.832;10.746;2022-09-21T05:35:14;5.80;99.90
8633;DHT22;4354;49.832;10.746;2022-09-21T05:40:12;5.80;99.90
8633;DHT22;4354;49.832;10.746;2022-09-21T05:42:39;5.70;99.90
8633;DHT22;4354;49.832;10.746;2022-09-21T05:45:08;5.70;99.90
8633;DHT22;4354;49.832;10.746;2022-09-21T05:47:38;5.70;99.90
8633;DHT22;4354;49.832;10.746;2022-09-21T05:50:41;5.80;99.90
8633;DHT22;4354;49.832;10.746;2022-09-21T05:53:42;5.80;99.90
8633;DHT22;4354;49.832;10.746;2022-09-21T05:56:28;5.90;99.90
8633;DHT22;4354;49.832;10.746;2022-09-21T06:02:10;6.10;99.90
8633;DHT22;4354;49.832;10.746;2022-09-21T06:04:39;6.10;99.90
8633;DHT22;4354;49.832;10.746;2022-09-21T06:07:06;6.20;99.90
8633;DHT22;4354;49.832;10.746;2022-09-21T06:09:33;6.30;99.90
8633;DHT22;4354;49.832;10.746;2022-09-21T06:12:00;6.40;99.90
8633;DHT22;4354;49.832;10.746;2022-09-21T06:14:27;6.40;99.90
8633;DHT22;4354;49.832;10.746;2022-09-21T06:16:54;6.40;99.90
8633;DHT22;4354;49.832;10.746;2022-09-21T06:19:21;6.50;99.90
8633;DHT22;4354;49.832;10.746;2022-09-21T06:21:47;6.50;99.90
8633;DHT22;4354;49.832;10.746;2022-09-21T06:24:14;6.50;99.90
8633;DHT22;4354;49.832;10.746;2022-09-21T06:26:41;6.50;99.90
8633;DHT22;4354;49.832;10.746;2022-09-21T06:29:08;6.50;99.90
8633;DHT22;4354;49.832;10.746;2022-09-21T06:31:35;6.50;99.90
8633;DHT22;4354;49.832;10.746;2022-09-21T06:34:02;6.60;99.90
8633;DHT22;4354;49.832;10.746;2022-09-21T06:36:29;6.70;99.90
8633;DHT22;4354;49.832;10.746;2022-09-21T06:38:56;6.80;99.90
8633;DHT22;4354;49.832;10.746;2022-09-21T06:41:23;6.80;99.90
8633;DHT22;4354;49.832;10.746;2022-09-21T06:43:53;6.90;99.90
8633;DHT22;4354;49.832;10.746;2022-09-21T06:46:21;7.00;99.90
8633;DHT22;4354;49.832;10.746;2022-09-21T06:48:47;7.10;99.90
8633;DHT22;4354;49.832;10.746;2022-09-21T06:51:14;7.00;99.90
8633;DHT22;4354;49.832;10.746;2022-09-21T06:53:41;7.10;99.90
8633;DHT22;4354;49.832;10.746;2022-09-21T06:56:09;7.20;99.90
8633;DHT22;4354;49.832;10.746;2022-09-21T06:58:36;7.20;99.90
8633;DHT22;4354;49.832;10.746;2022-09-21T07:01:08;7.40;99.90
8633;DHT22;4354;49.832;10.746;2022-09-21T07:03:36;7.30;99.90
8633;DHT22;4354;49.832;10.746;2022-09-21T07:06:04;7.30;99.90
8633;DHT22;4354;49.832;10.746;2022-09-21T07:08:31;7.40;99.90
8633;DHT22;4354;49.832;10.746;2022-09-21T07:11:18;7.40;99.90
8633;DHT22;4354;49.832;10.746;2022-09-21T07:13:45;7.40;99.90
8633;DHT22;4354;49.832;10.746;2022-09-21T07:16:12;7.30;99.90
8633;DHT22;4354;49.832;10.746;2022-09-21T07:18:40;7.50;99.90
8633;DHT22;4354;49.832;10.746;2022-09-21T07:21:10;7.50;99.90
8633;DHT22;4354;49.832;10.746;2022-09-21T07:23:37;7.30;99.90
8633;DHT22;4354;49.832;10.746;2022-09-21T07:26:10;7.50;99.90
8633;DHT22;4354;49.832;10.746;2022-09-21T07:28:37;7.30;99.90
8633;DHT22;4354;49.832;10.746;2022-09-21T07:31:12;7.40;99.90
8633;DHT22;4354;49.832;10.746;2022-09-21T07:33:40;7.50;99.90
8633;DHT22;4354;49.832;10.746;2022-09-21T07:36:07;7.60;99.90
8633;DHT22;4354;49.832;10.746;2022-09-21T07:38:40;7.80;99.90
8633;DHT22;4354;49.832;10.746;2022-09-21T07:41:09;7.90;99.90
8633;DHT22;4354;49.832;10.746;2022-09-21T07:43:36;7.70;99.90
8633;DHT22;4354;49.832;10.746;2022-09-21T07:46:08;7.60;99.90
8633;DHT22;4354;49.832;10.746;2022-09-21T07:48:36;7.70;99.90
8633;DHT22;4354;49.832;10.746;2022-09-21T07:51:04;7.80;99.90
8633;DHT22;4354;49.832;10.746;2022-09-21T07:53:36;7.80;99.90
8633;DHT22;4354;49.832;10.746;2022-09-21T07:56:05;7.90;99.90
8633;DHT22;4354;49.832;10.746;2022-09-21T07:58:34;8.00;99.90
8633;DHT22;4354;49.832;10.746;2022-09-21T08:01:20;8.10;99.90
8633;DHT22;4354;49.832;10.746;2022-09-21T08:03:52;8.20;99.90
8633;DHT22;4354;49.832;10.746;2022-09-21T08:06:21;8.20;99.90
8633;DHT22;4354;49.832;10.746;2022-09-21T08:08:47;8.20;99.90
8633;DHT22;4354;49.832;10.746;2022-09-21T08:11:22;8.20;99.90
8633;DHT22;4354;49.832;10.746;2022-09-21T08:13:54;8.30;99.90
8633;DHT22;4354;49.832;10.746;2022-09-21T08:16:22;8.30;99.90
8633;DHT22;4354;49.832;10.746;2022-09-21T08:18:49;8.50;99.90
8633;DHT22;4354;49.832;10.746;2022-09-21T08:21:17;8.60;99.90
8633;DHT22;4354;49.832;10.746;2022-09-21T08:23:45;8.90;99.90
8633;DHT22;4354;49.832;10.746;2022-09-21T08:26:16;8.90;99.90
8633;DHT22;4354;49.832;10.746;2022-09-21T08:28:49;9.00;99.90
8633;DHT22;4354;49.832;10.746;2022-09-21T08:31:19;9.10;99.90
8633;DHT22;4354;49.832;10.746;2022-09-21T08:33:47;9.20;99.90
8633;DHT22;4354;49.832;10.746;2022-09-21T08:36:16;9.40;99.90
8633;DHT22;4354;49.832;10.746;2022-09-21T08:38:43;9.50;99.90
8633;DHT22;4354;49.832;10.746;2022-09-21T08:44:02;9.50;99.90
8633;DHT22;4354;49.832;10.746;2022-09-21T08:46:31;9.50;99.90
8633;DHT22;4354;49.832;10.746;2022-09-21T08:49:05;9.60;99.90
8633;DHT22;4354;49.832;10.746;2022-09-21T08:51:40;9.80;99.90
8633;DHT22;4354;49.832;10.746;2022-09-21T08:54:20;9.80;99.90
8633;DHT22;4354;49.832;10.746;2022-09-21T08:56:48;10.00;99.90
8633;DHT22;4354;49.832;10.746;2022-09-21T08:59:33;10.10;99.90
8633;DHT22;4354;49.832;10.746;2022-09-21T09:05:07;10.30;99.90
8633;DHT22;4354;49.832;10.746;2022-09-21T09:18:33;11.10;99.90
8633;DHT22;4354;49.832;10.746;2022-09-21T09:21:15;10.90;99.90
8633;DHT22;4354;49.832;10.746;2022-09-21T09:26:54;11.10;99.90
8633;DHT22;4354;49.832;10.746;2022-09-21T09:31:54;11.30;99.90
8633;DHT22;4354;49.832;10.746;2022-09-21T09:34:37;11.50;99.90
8633;DHT22;4354;49.832;10.746;2022-09-21T09:37:13;11.60;99.90
8633;DHT22;4354;49.832;10.746;2022-09-21T09:39:42;11.70;99.90
8633;DHT22;4354;49.832;10.746;2022-09-21T09:51:25;13.00;99.90
8633;DHT22;4354;49.832;10.746;2022-09-21T09:53:55;13.40;99.90
8633;DHT22;4354;49.832;10.746;2022-09-21T09:56:24;14.00;99.90
8633;DHT22;4354;49.832;10.746;2022-09-21T09:58:56;14.70;99.90
8633;DHT22;4354;49.832;10.746;2022-09-21T10:04:07;17.10;99.90
8633;DHT22;4354;49.832;10.746;2022-09-21T10:06:38;18.40;99.90
8633;DHT22;4354;49.832;10.746;2022-09-21T10:09:25;20.20;99.90
8633;DHT22;4354;49.832;10.746;2022-09-21T10:11:58;21.90;99.90
8633;DHT22;4354;49.832;10.746;2022-09-21T10:14:28;23.20;98.70
8633;DHT22;4354;49.832;10.746;2022-09-21T10:17:02;22.90;94.70
8633;DHT22;4354;49.832;10.746;2022-09-21T10:19:30;23.60;94.00
8633;DHT22;4354;49.832;10.746;2022-09-21T10:21:59;23.30;92.80
8633;DHT22;4354;49.832;10.746;2022-09-21T10:24:35;24.00;90.70
8633;DHT22;4354;49.832;10.746;2022-09-21T10:29:40;25.90;85.00
8633;DHT22;4354;49.832;10.746;2022-09-21T10:42:48;27.80;67.10
8633;DHT22;4354;49.832;10.746;2022-09-21T10:45:30;28.70;63.40
8633;DHT22;4354;49.832;10.746;2022-09-21T10:48:15;28.40;62.50
8633;DHT22;4354;49.832;10.746;2022-09-21T10:50:45;28.00;65.90
8633;DHT22;4354;49.832;10.746;2022-09-21T10:53:20;29.00;63.10
8633;DHT22;4354;49.832;10.746;2022-09-21T11:01:49;28.10;61.90
8633;DHT22;4354;49.832;10.746;2022-09-21T11:04:40;28.50;60.80
8633;DHT22;4354;49.832;10.746;2022-09-21T11:10:24;28.30;60.40
8633;DHT22;4354;49.832;10.746;2022-09-21T11:18:21;25.50;64.60
8633;DHT22;4354;49.832;10.746;2022-09-21T11:21:00;25.50;64.10
8633;DHT22;4354;49.832;10.746;2022-09-21T11:26:22;25.40;62.50
8633;DHT22;4354;49.832;10.746;2022-09-21T11:31:36;25.10;62.70
8633;DHT22;4354;49.832;10.746;2022-09-21T11:39:45;24.40;64.10
8633;DHT22;4354;49.832;10.746;2022-09-21T11:42:43;24.40;63.40
8633;DHT22;4354;49.832;10.746;2022-09-21T11:50:55;25.00;59.30
8633;DHT22;4354;49.832;10.746;2022-09-21T11:59:25;25.30;54.60
8633;DHT22;4354;49.832;10.746;2022-09-21T12:15:15;25.20;55.90
8633;DHT22;4354;49.832;10.746;2022-09-21T12:20:52;25.00;58.60
8633;DHT22;4354;49.832;10.746;2022-09-21T12:26:05;24.80;57.10
8633;DHT22;4354;49.832;10.746;2022-09-21T12:28:43;24.50;56.10
8633;DHT22;4354;49.832;10.746;2022-09-21T12:31:18;24.40;56.90
8633;DHT22;4354;49.832;10.746;2022-09-21T12:33:59;23.20;60.70
8633;DHT22;4354;49.832;10.746;2022-09-21T12:39:21;22.50;60.90
8633;DHT22;4354;49.832;10.746;2022-09-21T12:42:19;22.60;61.40
8633;DHT22;4354;49.832;10.746;2022-09-21T12:44:54;23.10;61.70
8633;DHT22;4354;49.832;10.746;2022-09-21T12:47:42;23.20;63.70
8633;DHT22;4354;49.832;10.746;2022-09-21T12:50:29;23.50;60.00
8633;DHT22;4354;49.832;10.746;2022-09-21T12:53:01;23.50;59.80
8633;DHT22;4354;49.832;10.746;2022-09-21T12:56:05;23.60;58.50
8633;DHT22;4354;49.832;10.746;2022-09-21T12:58:45;23.70;59.20
8633;DHT22;4354;49.832;10.746;2022-09-21T13:09:42;21.80;63.60
8633;DHT22;4354;49.832;10.746;2022-09-21T13:12:19;22.10;61.20
8633;DHT22;4354;49.832;10.746;2022-09-21T13:14:50;22.10;60.80
8633;DHT22;4354;49.832;10.746;2022-09-21T13:17:29;21.80;59.80
8633;DHT22;4354;49.832;10.746;2022-09-21T13:22:31;21.30;62.10
8633;DHT22;4354;49.832;10.746;2022-09-21T13:28:04;20.90;61.40
8633;DHT22;4354;49.832;10.746;2022-09-21T13:43:49;21.30;60.00
8633;DHT22;4354;49.832;10.746;2022-09-21T13:52:03;19.80;61.00
8633;DHT22;4354;49.832;10.746;2022-09-21T13:54:52;19.50;60.80
8633;DHT22;4354;49.832;10.746;2022-09-21T13:57:39;19.30;61.90
8633;DHT22;4354;49.832;10.746;2022-09-21T14:00:27;19.10;60.40
8633;DHT22;4354;49.832;10.746;2022-09-21T14:02:58;18.70;63.40
8633;DHT22;4354;49.832;10.746;2022-09-21T14:05:45;18.30;63.20
8633;DHT22;4354;49.832;10.746;2022-09-21T14:13:32;17.40;65.90
8633;DHT22;4354;49.832;10.746;2022-09-21T14:18:55;17.00;68.70
8633;DHT22;4354;49.832;10.746;2022-09-21T14:21:22;16.70;67.80
8633;DHT22;4354;49.832;10.746;2022-09-21T14:24:21;16.50;67.70
8633;DHT22;4354;49.832;10.746;2022-09-21T14:29:54;16.60;69.30
8633;DHT22;4354;49.832;10.746;2022-09-21T14:32:27;16.60;69.10
8633;DHT22;4354;49.832;10.746;2022-09-21T14:34:59;16.60;70.30
8633;DHT22;4354;49.832;10.746;2022-09-21T14:37:34;16.60;69.80
8633;DHT22;4354;49.832;10.746;2022-09-21T14:42:52;16.70;70.50
8633;DHT22;4354;49.832;10.746;2022-09-21T14:51:29;16.70;72.60
8633;DHT22;4354;49.832;10.746;2022-09-21T15:00:09;16.50;71.20
8633;DHT22;4354;49.832;10.746;2022-09-21T15:02:41;16.40;71.70
8633;DHT22;4354;49.832;10.746;2022-09-21T15:05:37;16.40;72.20
8633;DHT22;4354;49.832;10.746;2022-09-21T15:11:35;16.10;71.90
8633;DHT22;4354;49.832;10.746;2022-09-21T15:14:25;16.00;74.30
8633;DHT22;4354;49.832;10.746;2022-09-21T15:16:53;15.80;70.50
8633;DHT22;4354;49.832;10.746;2022-09-21T15:19:25;15.70;71.50
8633;DHT22;4354;49.832;10.746;2022-09-21T15:24:32;15.70;73.30
8633;DHT22;4354;49.832;10.746;2022-09-21T15:27:13;15.60;72.90
8633;DHT22;4354;49.832;10.746;2022-09-21T15:29:46;15.50;72.20
8633;DHT22;4354;49.832;10.746;2022-09-21T15:34:57;15.30;72.50
8633;DHT22;4354;49.832;10.746;2022-09-21T15:37:27;15.20;74.70
8633;DHT22;4354;49.832;10.746;2022-09-21T15:40:03;15.10;74.70
8633;DHT22;4354;49.832;10.746;2022-09-21T15:42:30;15.00;75.50
8633;DHT22;4354;49.832;10.746;2022-09-21T15:45:14;15.00;74.80
8633;DHT22;4354;49.832;10.746;2022-09-21T15:47:41;15.00;75.30
8633;DHT22;4354;49.832;10.746;2022-09-21T15:50:14;14.80;81.00
8633;DHT22;4354;49.832;10.746;2022-09-21T15:52:53;14.80;78.70
8633;DHT22;4354;49.832;10.746;2022-09-21T15:55:22;14.80;78.80
8633;DHT22;4354;49.832;10.746;2022-09-21T15:57:54;14.70;79.10
8633;DHT22;4354;49.832;10.746;2022-09-21T16:00:27;14.60;82.50
8633;DHT22;4354;49.832;10.746;2022-09-21T16:02:59;14.50;81.40
8633;DHT22;4354;49.832;10.746;2022-09-21T16:08:35;14.30;82.60
8633;DHT22;4354;49.832;10.746;2022-09-21T16:13:58;14.10;85.00
8633;DHT22;4354;49.832;10.746;2022-09-21T16:22:39;13.90;90.10
8633;DHT22;4354;49.832;10.746;2022-09-21T16:27:54;13.80;93.60
8633;DHT22;4354;49.832;10.746;2022-09-21T16:30:48;13.70;92.40
8633;DHT22;4354;49.832;10.746;2022-09-21T16:33:36;13.60;93.70
8633;DHT22;4354;49.832;10.746;2022-09-21T16:36:28;13.50;95.60
8633;DHT22;4354;49.832;10.746;2022-09-21T16:38:52;13.40;96.10
8633;DHT22;4354;49.832;10.746;2022-09-21T16:41:29;13.30;98.30
8633;DHT22;4354;49.832;10.746;2022-09-21T16:43:58;13.20;99.90
8633;DHT22;4354;49.832;10.746;2022-09-21T16:46:26;13.10;99.90
8633;DHT22;4354;49.832;10.746;2022-09-21T16:48:53;13.00;99.90
8633;DHT22;4354;49.832;10.746;2022-09-21T16:51:25;12.80;99.90
8633;DHT22;4354;49.832;10.746;2022-09-21T16:53:53;12.80;99.90
8633;DHT22;4354;49.832;10.746;2022-09-21T16:56:21;12.60;99.90
8633;DHT22;4354;49.832;10.746;2022-09-21T16:58:48;12.50;99.90
8633;DHT22;4354;49.832;10.746;2022-09-21T17:01:17;12.40;99.90
8633;DHT22;4354;49.832;10.746;2022-09-21T17:03:46;12.30;99.90
8633;DHT22;4354;49.832;10.746;2022-09-21T17:06:19;12.20;99.90
8633;DHT22;4354;49.832;10.746;2022-09-21T17:08:46;12.10;99.90
8633;DHT22;4354;49.832;10.746;2022-09-21T17:11:18;12.00;99.90
8633;DHT22;4354;49.832;10.746;2022-09-21T17:13:51;11.80;99.90
8633;DHT22;4354;49.832;10.746;2022-09-21T17:16:23;11.70;99.90
8633;DHT22;4354;49.832;10.746;2022-09-21T17:18:50;11.60;99.90
8633;DHT22;4354;49.832;10.746;2022-09-21T17:21:17;11.50;99.90
8633;DHT22;4354;49.832;10.746;2022-09-21T17:23:44;11.40;99.90
8633;DHT22;4354;49.832;10.746;2022-09-21T17:26:16;11.30;99.90
8633;DHT22;4354;49.832;10.746;2022-09-21T17:28:46;11.10;99.90
8633;DHT22;4354;49.832;10.746;2022-09-21T17:31:14;11.00;99.90
8633;DHT22;4354;49.832;10.746;2022-09-21T17:33:46;10.90;99.90
8633;DHT22;4354;49.832;10.746;2022-09-21T17:36:17;10.70;99.90
8633;DHT22;4354;49.832;10.746;2022-09-21T17:38:47;10.60;99.90
8633;DHT22;4354;49.832;10.746;2022-09-21T17:44:07;10.30;99.90
8633;DHT22;4354;49.832;10.746;2022-09-21T17:46:59;10.10;99.90
8633;DHT22;4354;49.832;10.746;2022-09-21T17:49:29;10.00;99.90
8633;DHT22;4354;49.832;10.746;2022-09-21T17:51:56;9.90;99.90
8633;DHT22;4354;49.832;10.746;2022-09-21T17:54:41;9.80;99.90
8633;DHT22;4354;49.832;10.746;2022-09-21T17:57:22;9.70;99.90
8633;DHT22;4354;49.832;10.746;2022-09-21T18:00:05;9.60;99.90
8633;DHT22;4354;49.832;10.746;2022-09-21T18:02:36;9.50;99.90
8633;DHT22;4354;49.832;10.746;2022-09-21T18:05:16;9.40;99.90
8633;DHT22;4354;49.832;10.746;2022-09-21T18:07:44;9.80;99.90
8633;DHT22;4354;49.832;10.746;2022-09-21T18:10:12;9.30;99.90
8633;DHT22;4354;49.832;10.746;2022-09-21T18:21:11;9.20;99.90
8633;DHT22;4354;49.832;10.746;2022-09-21T18:24:06;9.10;99.90
8633;DHT22;4354;49.832;10.746;2022-09-21T18:26:33;9.00;99.90
8633;DHT22;4354;49.832;10.746;2022-09-21T18:29:01;8.90;99.90
8633;DHT22;4354;49.832;10.746;2022-09-21T18:31:57;8.90;99.90
8633;DHT22;4354;49.832;10.746;2022-09-21T18:37:35;8.60;99.90
8633;DHT22;4354;49.832;10.746;2022-09-21T18:40:38;8.60;99.90
8633;DHT22;4354;49.832;10.746;2022-09-21T18:45:46;8.60;99.90
8633;DHT22;4354;49.832;10.746;2022-09-21T18:48:41;8.60;99.90
8633;DHT22;4354;49.832;10.746;2022-09-21T18:53:57;8.70;99.90
8633;DHT22;4354;49.832;10.746;2022-09-21T18:56:30;8.60;99.90
8633;DHT22;4354;49.832;10.746;2022-09-21T18:59:00;8.60;99.90
8633;DHT22;4354;49.832;10.746;2022-09-21T19:01:28;8.60;99.90
8633;DHT22;4354;49.832;10.746;2022-09-21T19:03:59;8.60;99.90
8633;DHT22;4354;49.832;10.746;2022-09-21T19:06:45;8.60;99.90
8633;DHT22;4354;49.832;10.746;2022-09-21T19:09:37;8.50;99.90
8633;DHT22;4354;49.832;10.746;2022-09-21T19:15:21;8.50;99.90
8633;DHT22;4354;49.832;10.746;2022-09-21T19:24:14;8.20;99.90
8633;DHT22;4354;49.832;10.746;2022-09-21T19:31:45;8.00;99.90
8633;DHT22;4354;49.832;10.746;2022-09-21T19:34:14;8.00;99.90
8633;DHT22;4354;49.832;10.746;2022-09-21T19:36:42;8.00;99.90
8633;DHT22;4354;49.832;10.746;2022-09-21T19:39:10;8.00;99.90
8633;DHT22;4354;49.832;10.746;2022-09-21T19:44:32;8.00;99.90
8633;DHT22;4354;49.832;10.746;2022-09-21T19:47:17;7.90;99.90
8633;DHT22;4354;49.832;10.746;2022-09-21T19:49:50;7.80;99.90
8633;DHT22;4354;49.832;10.746;2022-09-21T19:52:38;7.80;99.90
8633;DHT22;4354;49.832;10.746;2022-09-21T19:55:17;7.80;99.90
8633;DHT22;4354;49.832;10.746;2022-09-21T19:58:03;7.80;99.90
8633;DHT22;4354;49.832;10.746;2022-09-21T20:00:52;7.70;99.90
8633;DHT22;4354;49.832;10.746;2022-09-21T20:03:32;7.60;99.90
8633;DHT22;4354;49.832;10.746;2022-09-21T20:06:50;7.60;99.90
8633;DHT22;4354;49.832;10.746;2022-09-21T20:09:18;7.60;99.90
8633;DHT22;4354;49.832;10.746;2022-09-21T20:15:06;7.50;99.90
8633;DHT22;4354;49.832;10.746;2022-09-21T20:17:38;7.40;99.90
8633;DHT22;4354;49.832;10.746;2022-09-21T20:20:11;7.40;99.90
8633;DHT22;4354;49.832;10.746;2022-09-21T20:22:41;7.30;99.90
8633;DHT22;4354;49.832;10.746;2022-09-21T20:27:42;7.20;99.90
8633;DHT22;4354;49.832;10.746;2022-09-21T20:30:13;7.20;99.90
8633;DHT22;4354;49.832;10.746;2022-09-21T20:32:42;7.20;99.90
8633;DHT22;4354;49.832;10.746;2022-09-21T20:35:30;7.10;99.90
8633;DHT22;4354;49.832;10.746;2022-09-21T20:37:57;7.00;99.90
8633;DHT22;4354;49.832;10.746;2022-09-21T20:40:29;7.10;99.90
8633;DHT22;4354;49.832;10.746;2022-09-21T20:42:58;7.00;99.90
8633;DHT22;4354;49.832;10.746;2022-09-21T20:45:27;7.00;99.90
8633;DHT22;4354;49.832;10.746;2022-09-21T20:47:55;7.00;99.90
8633;DHT22;4354;49.832;10.746;2022-09-21T20:52:57;6.90;99.90
8633;DHT22;4354;49.832;10.746;2022-09-21T20:55:24;6.80;99.90
8633;DHT22;4354;49.832;10.746;2022-09-21T20:57:50;6.80;99.90
8633;DHT22;4354;49.832;10.746;2022-09-21T21:00:17;6.80;99.90